PDT,Max TemperatureF,Mean TemperatureF,Min TemperatureF,Max Dew PointF,MeanDew PointF,Min DewpointF,Max Humidity, Mean Humidity, Min Humidity, Max Sea Level PressureIn, Mean Sea Level PressureIn, Min Sea Level PressureIn, Max VisibilityMiles, Mean VisibilityMiles, Min VisibilityMiles, Max Wind SpeedMPH, Mean Wind SpeedMPH, Max Gust SpeedMPH,PrecipitationIn, CloudCover, Events, WindDirDegrees
2013-7-1,84,78,71,64,64,62,79,65,51,29.91,29.86,29.79,10,8,4,15,5,18,0.00,2,,249
2013-7-2,81,75,68,63,62,60,78,66,54,30.03,29.94,29.88,10,6,0,16,5,22,0.00,5,,228
2013-7-3,80,75,69,63,61,60,78,66,54,29.95,29.89,29.82,10,9,4,13,4,16,T,5,,248
2013-7-4,78,73,68,62,60,59,76,65,54,29.86,29.83,29.77,10,8,4,13,5,17,0.00,5,,210
2013-7-5,80,74,67,61,60,60,81,66,51,29.88,29.83,29.79,10,10,8,15,5,20,0.00,6,,226
2013-7-6,79,73,66,63,61,59,81,69,56,29.86,29.82,29.76,10,10,10,14,5,21,0.00,7,,239
2013-7-7,79,72,64,61,59,57,87,69,50,29.88,29.84,29.79,10,8,2,13,4,17,T,4,,251
2013-7-8,80,72,63,59,58,55,78,64,49,29.96,29.92,29.87,10,9,4,13,5,17,0.00,2,,277
2013-7-9,86,74,62,61,58,56,90,65,40,30.01,29.96,29.91,10,6,0,13,5,16,0.00,4,Fog,262
2013-7-10,85,75,64,62,60,57,84,66,47,29.99,29.96,29.92,10,8,5,13,4,23,0.00,0,,262
2013-7-11,81,75,68,64,62,60,73,66,58,29.99,29.94,29.91,10,9,6,12,4,,0.00,0,,255
2013-7-12,81,73,65,63,60,58,87,69,51,29.96,29.92,29.88,10,6,0,13,4,20,0.00,5,,257
2013-7-13,80,73,66,60,59,57,78,65,52,29.99,29.94,29.87,10,8,5,13,5,18,0.00,3,,243
2013-7-14,82,73,63,60,57,54,78,60,42,29.96,29.91,29.84,10,9,6,13,4,17,0.00,0,,243
2013-7-15,81,72,62,57,55,54,78,60,42,29.90,29.88,29.85,10,9,6,16,5,,0.00,0,,252
2013-7-16,82,70,58,57,55,52,84,62,39,30.00,29.93,29.87,10,7,2,13,5,20,0.00,3,,256
2013-7-17,83,71,59,57,55,51,73,55,37,30.05,30.02,29.99,10,10,9,13,5,18,0.00,0,,266
2013-7-18,81,72,63,58,56,55,78,62,45,30.01,29.96,29.89,10,8,5,13,4,16,0.00,2,,251
2013-7-19,80,72,63,57,56,54,78,60,42,29.94,29.90,29.85,10,8,5,13,4,20,0.00,0,,265
2013-7-20,79,70,60,61,58,54,78,66,54,29.91,29.87,29.81,10,8,4,13,4,17,0.00,2,,239
2013-7-21,76,72,68,63,60,57,73,67,60,29.95,29.88,29.81,10,7,2,13,5,14,T,5,,234
2013-7-22,79,73,67,63,61,59,81,68,54,30.00,29.97,29.91,10,8,3,14,5,20,0.04,4,Rain,215
2013-7-23,80,74,67,61,59,57,81,65,48,30.06,30.01,29.96,10,9,5,14,5,20,0.00,5,,250
2013-7-24,76,70,64,59,58,57,84,69,54,30.01,29.98,29.94,10,9,4,13,4,17,0.00,6,,252
2013-7-25,76,70,64,59,58,57,78,66,54,30.04,29.99,29.93,10,9,6,14,5,18,0.00,5,,243
2013-7-26,77,69,61,59,57,57,84,69,54,30.12,30.05,30.00,10,10,8,12,5,15,0.00,5,,260
2013-7-27,74,67,60,58,57,56,90,74,57,30.04,29.98,29.90,10,9,7,13,5,16,0.00,4,,253
2013-7-28,69,64,59,59,57,55,87,78,68,29.96,29.93,29.91,10,9,6,13,4,16,0.00,8,,235
2013-7-29,72,66,60,58,57,54,90,74,57,30.06,30.00,29.93,10,9,3,13,5,20,0.00,4,,257
2013-7-30,71,65,59,57,56,54,87,72,57,30.16,30.11,30.05,10,10,8,13,5,17,0.00,4,,236
2013-7-31,71,64,57,56,55,53,86,74,61,30.14,30.08,30.03,10,9,7,14,4,17,0.00,6,,231